createdAt,value
2022-12-09T00:02:19.424Z,0.00
2022-12-09T00:04:46.012Z,0.13
2022-12-09T00:07:12.460Z,0.10
2022-12-09T00:09:38.805Z,0.10
2022-12-09T00:12:05.164Z,0.00
2022-12-09T00:14:31.432Z,0.10
2022-12-09T00:16:57.756Z,0.05
2022-12-09T00:19:24.122Z,0.03
2022-12-09T00:21:50.368Z,0.00
2022-12-09T00:24:16.653Z,0.05
2022-12-09T00:26:42.961Z,0.00
2022-12-09T00:29:10.368Z,0.10
2022-12-09T00:31:37.547Z,0.08
2022-12-09T00:34:06.108Z,0.00
2022-12-09T00:36:32.932Z,0.00
2022-12-09T00:38:59.812Z,0.10
2022-12-09T00:41:26.537Z,0.10
2022-12-09T00:43:52.864Z,0.13
2022-12-09T00:46:19.561Z,0.10
2022-12-09T00:48:46.267Z,0.08
2022-12-09T00:51:16.927Z,0.17
2022-12-09T00:53:43.539Z,0.00
2022-12-09T00:56:10.181Z,0.00
2022-12-09T00:58:36.786Z,0.10
2022-12-09T01:01:03.210Z,0.00
2022-12-09T01:03:30.059Z,0.10
2022-12-09T01:05:56.688Z,0.00
2022-12-09T01:08:23.226Z,0.00
2022-12-09T01:10:49.673Z,0.10
2022-12-09T01:13:16.398Z,0.00
2022-12-09T01:15:43.014Z,0.00
2022-12-09T01:18:11.121Z,0.20
2022-12-09T01:20:37.880Z,0.00
2022-12-09T01:23:04.525Z,0.10
2022-12-09T01:25:30.839Z,0.00
2022-12-09T01:27:57.544Z,0.00
2022-12-09T01:30:23.898Z,0.00
2022-12-09T01:32:50.283Z,0.10
2022-12-09T01:35:16.794Z,0.10
2022-12-09T01:37:43.201Z,0.13
2022-12-09T01:40:12.450Z,0.00
2022-12-09T01:42:38.804Z,0.00
2022-12-09T01:45:20.710Z,0.10
2022-12-09T01:47:47.864Z,0.10
2022-12-09T01:50:15.129Z,0.00
2022-12-09T01:52:41.601Z,0.10
2022-12-09T01:55:08.603Z,0.03
2022-12-09T01:57:35.126Z,0.00
2022-12-09T02:00:01.945Z,0.10
2022-12-09T02:02:30.543Z,0.10
2022-12-09T02:04:57.259Z,0.00
2022-12-09T02:07:23.643Z,0.00
2022-12-09T02:09:53.334Z,0.00
2022-12-09T02:12:31.889Z,0.10
2022-12-09T02:15:03.418Z,0.20
2022-12-09T02:17:30.055Z,0.10
2022-12-09T02:20:14.442Z,0.20
2022-12-09T02:22:45.865Z,0.08
2022-12-09T02:25:41.765Z,0.10
2022-12-09T02:28:16.423Z,0.10
2022-12-09T02:30:46.012Z,0.10
2022-12-09T02:33:18.263Z,0.00
2022-12-09T02:35:55.639Z,0.40
2022-12-09T02:38:28.868Z,1.25
2022-12-09T02:40:55.197Z,12.57
2022-12-09T02:43:24.302Z,8.93
2022-12-09T02:45:51.740Z,9.60
2022-12-09T02:48:20.152Z,9.07
2022-12-09T02:50:49.532Z,37.72
2022-12-09T02:53:16.025Z,24.95
2022-12-09T02:55:43.445Z,12.13
2022-12-09T02:58:09.942Z,5.18
2022-12-09T03:00:36.983Z,5.05
2022-12-09T03:03:04.722Z,7.10
2022-12-09T03:05:31.619Z,10.13
2022-12-09T03:08:03.362Z,30.38
2022-12-09T03:10:34.352Z,19.13
2022-12-09T03:13:04.504Z,22.17
2022-12-09T03:15:33.505Z,15.38
2022-12-09T03:18:02.793Z,10.60
2022-12-09T03:20:30.399Z,11.32
2022-12-09T03:22:59.521Z,6.95
2022-12-09T03:25:33.042Z,9.02
2022-12-09T03:28:04.463Z,1.10
2022-12-09T03:30:31.450Z,5.75
2022-12-09T03:32:58.268Z,4.43
2022-12-09T03:35:26.657Z,5.85
2022-12-09T03:37:53.872Z,7.65
2022-12-09T03:40:24.378Z,2.88
2022-12-09T03:43:01.915Z,0.60
2022-12-09T03:45:28.810Z,1.33
2022-12-09T03:47:55.553Z,0.30
2022-12-09T03:50:23.464Z,2.30
2022-12-09T03:52:56.677Z,0.00
2022-12-09T03:55:33.227Z,16.40
2022-12-09T03:58:00.958Z,2.38
2022-12-09T04:00:27.610Z,0.00
2022-12-09T04:02:54.424Z,0.10
2022-12-09T04:05:20.962Z,0.05
2022-12-09T04:07:47.393Z,0.57
2022-12-09T04:10:14.344Z,0.00
2022-12-09T04:12:40.950Z,0.00
2022-12-09T04:15:07.486Z,0.10
2022-12-09T04:17:33.856Z,0.00
2022-12-09T04:20:00.596Z,0.00
2022-12-09T04:22:26.965Z,0.10
2022-12-09T04:24:53.585Z,0.00
2022-12-09T04:27:20.229Z,0.00
2022-12-09T04:29:46.565Z,0.00
2022-12-09T04:32:13.075Z,0.20
2022-12-09T04:34:40.107Z,0.00
2022-12-09T04:37:06.464Z,0.00
2022-12-09T04:39:32.995Z,0.00
2022-12-09T04:41:59.396Z,0.10
2022-12-09T04:44:25.994Z,0.10
2022-12-09T04:46:52.659Z,0.00
2022-12-09T04:49:19.296Z,0.00
2022-12-09T04:51:45.788Z,0.00
2022-12-09T04:54:13.092Z,0.10
2022-12-09T04:56:39.549Z,0.00
2022-12-09T04:59:06.297Z,0.13
2022-12-09T05:01:33.183Z,0.10
2022-12-09T05:03:59.883Z,0.10
2022-12-09T05:06:26.900Z,0.00
2022-12-09T05:08:54.823Z,0.00
2022-12-09T05:11:23.691Z,0.00
2022-12-09T05:13:50.845Z,0.00
2022-12-09T05:16:18.375Z,0.28
2022-12-09T05:18:45.548Z,3.17
2022-12-09T05:21:13.161Z,22.05
2022-12-09T05:23:39.614Z,34.40
2022-12-09T05:26:07.642Z,13.20
2022-12-09T05:28:34.524Z,13.88
2022-12-09T05:31:01.655Z,35.47
2022-12-09T05:33:28.642Z,37.95
2022-12-09T05:35:55.725Z,34.03
2022-12-09T05:38:22.514Z,48.83
2022-12-09T05:40:49.064Z,55.78
2022-12-09T05:43:15.560Z,59.15
2022-12-09T05:45:42.087Z,60.33
2022-12-09T05:48:08.551Z,30.48
2022-12-09T05:50:35.463Z,40.22
2022-12-09T05:53:02.130Z,40.17
2022-12-09T05:55:28.955Z,35.03
2022-12-09T05:57:55.653Z,28.42
2022-12-09T06:00:22.668Z,12.05
2022-12-09T06:02:49.456Z,29.88
2022-12-09T06:05:16.269Z,21.15
2022-12-09T06:07:43.076Z,42.92
2022-12-09T06:10:10.217Z,9.68
2022-12-09T06:12:36.983Z,16.80
2022-12-09T06:15:03.504Z,33.78
2022-12-09T06:17:30.188Z,15.70
2022-12-09T06:19:56.493Z,9.00
2022-12-09T06:22:23.567Z,17.83
2022-12-09T06:24:54.053Z,4.85
2022-12-09T06:27:23.420Z,9.40
2022-12-09T06:29:50.083Z,2.85
2022-12-09T06:32:16.543Z,2.47
2022-12-09T06:34:43.186Z,0.55
2022-12-09T06:37:09.839Z,0.88
2022-12-09T06:39:36.507Z,0.15
2022-12-09T06:42:04.396Z,0.00
2022-12-09T06:44:30.789Z,0.00
2022-12-09T06:46:57.156Z,0.22
2022-12-09T06:49:24.020Z,0.05
2022-12-09T06:51:50.639Z,0.00
2022-12-09T06:54:17.342Z,0.00
2022-12-09T06:56:43.732Z,0.10
2022-12-09T06:59:10.775Z,0.00
2022-12-09T07:01:37.791Z,0.05
2022-12-09T07:04:05.350Z,0.10
2022-12-09T07:06:36.510Z,4.90
2022-12-09T07:09:07.509Z,5.30
2022-12-09T07:11:34.504Z,2.33
2022-12-09T07:14:01.402Z,1.80
2022-12-09T07:16:28.406Z,4.65
2022-12-09T07:18:55.432Z,1.83
2022-12-09T07:21:22.900Z,0.50
2022-12-09T07:23:49.945Z,1.30
2022-12-09T07:26:17.006Z,0.25
2022-12-09T07:28:44.213Z,0.30
2022-12-09T07:31:21.450Z,3.42
2022-12-09T07:33:48.523Z,0.82
2022-12-09T07:36:20.658Z,0.10
2022-12-09T07:38:47.859Z,0.43
2022-12-09T07:41:20.959Z,0.15
2022-12-09T07:43:48.169Z,0.10
2022-12-09T07:46:16.518Z,0.90
2022-12-09T07:48:43.447Z,1.50
2022-12-09T07:51:10.252Z,0.98
2022-12-09T07:53:37.342Z,12.32
2022-12-09T07:56:05.318Z,24.95
2022-12-09T07:58:32.151Z,27.92
2022-12-09T08:01:04.302Z,3.05
2022-12-09T08:03:30.663Z,34.80
2022-12-09T08:05:57.139Z,34.47
2022-12-09T08:08:24.370Z,16.40
2022-12-09T08:10:50.961Z,38.10
2022-12-09T08:13:17.699Z,52.28
2022-12-09T08:15:44.051Z,52.70
2022-12-09T08:18:10.487Z,25.17
2022-12-09T08:20:37.110Z,52.80
2022-12-09T08:23:03.668Z,22.30
2022-12-09T08:25:30.214Z,30.15
2022-12-09T08:27:57.037Z,34.53
2022-12-09T08:30:23.589Z,14.25
2022-12-09T08:32:50.803Z,30.80
2022-12-09T08:35:17.590Z,33.88
2022-12-09T08:37:44.494Z,48.22
2022-12-09T08:40:11.716Z,35.45
2022-12-09T08:42:38.630Z,31.85
2022-12-09T08:45:05.482Z,26.65
2022-12-09T08:47:32.102Z,47.25
2022-12-09T08:49:59.110Z,44.17
2022-12-09T08:52:26.138Z,25.15
2022-12-09T08:54:53.030Z,20.58
2022-12-09T08:57:24.172Z,28.25
2022-12-09T08:59:50.613Z,27.75
2022-12-09T09:02:17.267Z,21.90
2022-12-09T09:04:44.302Z,22.50
2022-12-09T09:07:11.437Z,13.77
2022-12-09T09:09:37.994Z,29.55
2022-12-09T09:12:04.780Z,21.80
2022-12-09T09:14:31.286Z,23.20
2022-12-09T09:16:58.392Z,26.10
2022-12-09T09:19:26.039Z,19.65
2022-12-09T09:21:53.316Z,7.55
2022-12-09T09:24:21.456Z,9.63
2022-12-09T09:26:49.329Z,12.15
2022-12-09T09:29:17.530Z,5.82
2022-12-09T09:31:44.290Z,11.35
2022-12-09T09:34:11.663Z,9.70
2022-12-09T09:36:39.692Z,3.60
2022-12-09T09:39:06.109Z,3.60
2022-12-09T09:41:35.638Z,0.77
2022-12-09T09:44:02.262Z,0.30
2022-12-09T09:46:34.277Z,0.10
2022-12-09T09:49:01.504Z,0.20
2022-12-09T09:51:28.617Z,0.10
2022-12-09T09:53:55.575Z,0.20
2022-12-09T09:56:31.360Z,0.25
2022-12-09T09:59:11.196Z,0.15
2022-12-09T10:01:38.005Z,0.00
2022-12-09T10:04:08.104Z,0.10
2022-12-09T10:06:35.281Z,0.10
2022-12-09T10:09:20.799Z,0.00
2022-12-09T10:11:47.359Z,0.00
2022-12-09T10:14:21.228Z,0.00
2022-12-09T10:16:51.541Z,0.00
2022-12-09T10:19:21.557Z,0.05
2022-12-09T10:21:48.884Z,0.10
2022-12-09T10:24:15.440Z,0.03
2022-12-09T10:26:42.526Z,0.10
2022-12-09T10:29:15.497Z,0.03
2022-12-09T10:31:42.055Z,0.13
2022-12-09T10:34:09.146Z,0.10
2022-12-09T10:36:37.452Z,0.00
2022-12-09T10:39:05.192Z,0.00
2022-12-09T10:42:06.240Z,0.10
2022-12-09T10:44:32.889Z,0.15
2022-12-09T10:47:03.165Z,0.03
2022-12-09T10:49:30.424Z,0.15
2022-12-09T10:51:58.081Z,0.10
2022-12-09T10:54:39.366Z,0.00
2022-12-09T10:57:12.528Z,0.10
2022-12-09T10:59:40.152Z,0.10
2022-12-09T11:02:09.915Z,0.10
2022-12-09T11:04:38.429Z,0.20
2022-12-09T11:07:14.933Z,0.38
2022-12-09T11:09:45.037Z,0.00
2022-12-09T11:12:41.231Z,0.00
2022-12-09T11:15:11.679Z,0.00
2022-12-09T11:17:39.924Z,0.00
2022-12-09T11:20:07.564Z,0.15
2022-12-09T11:22:42.312Z,0.40
2022-12-09T11:25:11.997Z,0.00
2022-12-09T11:27:47.406Z,0.03
2022-12-09T11:30:16.575Z,0.10
2022-12-09T11:32:53.645Z,0.00
2022-12-09T11:35:24.155Z,0.10
2022-12-09T11:37:50.740Z,0.10
2022-12-09T11:40:18.085Z,0.00
2022-12-09T11:42:49.553Z,0.00
2022-12-09T11:45:22.718Z,0.20
2022-12-09T11:48:23.039Z,0.10
2022-12-09T11:50:42.690Z,0.10
2022-12-09T11:53:12.134Z,0.10
2022-12-09T11:55:43.985Z,0.13
2022-12-09T11:58:13.640Z,0.08
2022-12-09T12:00:42.958Z,0.10
2022-12-09T12:03:31.533Z,0.00
2022-12-09T12:06:00.015Z,0.00
2022-12-09T12:08:37.937Z,0.00
2022-12-09T12:11:14.929Z,0.20
2022-12-09T12:13:52.725Z,0.00
2022-12-09T12:16:39.960Z,0.00
2022-12-09T12:19:09.127Z,0.10
2022-12-09T12:21:35.370Z,0.00
2022-12-09T12:24:07.696Z,0.20
2022-12-09T12:29:05.490Z,0.10
2022-12-09T12:31:39.528Z,0.13
2022-12-09T12:36:56.779Z,0.00
2022-12-09T12:41:57.405Z,0.10
2022-12-09T12:45:01.371Z,0.10
2022-12-09T12:47:43.701Z,0.10
2022-12-09T12:50:20.128Z,0.00
2022-12-09T12:52:56.373Z,0.00
2022-12-09T12:55:42.330Z,0.00
2022-12-09T12:58:14.389Z,0.00
2022-12-09T13:01:00.671Z,0.63
2022-12-09T13:03:38.161Z,0.10
2022-12-09T13:06:04.954Z,0.10
2022-12-09T13:08:50.151Z,0.20
2022-12-09T13:11:37.519Z,0.10
2022-12-09T13:14:06.941Z,0.00
2022-12-09T13:16:39.193Z,0.20
2022-12-09T13:21:31.849Z,0.45
2022-12-09T13:24:04.286Z,0.15
2022-12-09T13:26:31.003Z,0.03
2022-12-09T13:29:21.085Z,0.10
2022-12-09T13:31:55.694Z,0.00
2022-12-09T13:34:31.146Z,0.00
2022-12-09T13:36:57.456Z,0.10
2022-12-09T13:39:38.956Z,0.10
2022-12-09T13:42:50.356Z,0.00
2022-12-09T13:45:26.075Z,0.00
2022-12-09T13:47:55.873Z,0.03
2022-12-09T13:50:22.169Z,0.00
2022-12-09T13:52:51.091Z,0.10
2022-12-09T13:55:26.161Z,0.10
2022-12-09T13:58:12.772Z,0.10
2022-12-09T14:00:41.646Z,0.10
2022-12-09T14:03:31.402Z,0.00
2022-12-09T14:05:58.971Z,0.13
2022-12-09T14:08:28.850Z,0.00
2022-12-09T14:10:55.205Z,0.08
2022-12-09T14:13:24.250Z,0.00
2022-12-09T14:16:09.234Z,0.00
2022-12-09T14:18:35.953Z,0.00
2022-12-09T14:21:17.575Z,0.00
2022-12-09T14:24:02.763Z,0.00
2022-12-09T14:26:36.142Z,0.00
2022-12-09T14:29:02.573Z,0.03
2022-12-09T14:31:47.733Z,0.10
2022-12-09T14:34:22.045Z,0.00
2022-12-09T14:36:54.598Z,0.00
2022-12-09T14:39:25.560Z,0.00
2022-12-09T14:41:58.850Z,0.10
2022-12-09T14:44:31.005Z,0.00
2022-12-09T14:47:15.021Z,0.10
2022-12-09T14:49:48.882Z,0.10
2022-12-09T14:52:21.185Z,0.13
2022-12-09T14:54:47.964Z,0.10
2022-12-09T14:57:22.303Z,0.20
2022-12-09T14:59:50.489Z,0.00
2022-12-09T15:02:19.603Z,0.15
2022-12-09T15:04:47.333Z,0.00
2022-12-09T15:07:13.712Z,0.20
2022-12-09T15:09:49.145Z,0.10
2022-12-09T15:12:15.785Z,0.10
2022-12-09T15:14:44.256Z,0.00
2022-12-09T15:17:39.626Z,0.10
2022-12-09T15:20:06.778Z,0.10
2022-12-09T15:22:33.221Z,0.00
2022-12-09T15:24:59.658Z,0.10
2022-12-09T15:27:26.073Z,0.08
2022-12-09T15:29:53.022Z,0.00
2022-12-09T15:32:21.201Z,0.00
2022-12-09T15:34:47.574Z,0.00
2022-12-09T15:37:14.853Z,0.10
2022-12-09T15:39:50.791Z,0.10
2022-12-09T15:42:21.949Z,0.10
2022-12-09T15:44:50.487Z,0.00
2022-12-09T15:47:16.784Z,0.00
2022-12-09T15:50:08.487Z,0.00
2022-12-09T15:52:41.007Z,0.00
2022-12-09T15:55:09.804Z,0.00
2022-12-09T15:57:36.259Z,0.03
2022-12-09T16:00:03.986Z,0.00
2022-12-09T16:02:32.062Z,0.00
2022-12-09T16:05:00.824Z,0.08
2022-12-09T16:07:27.494Z,0.10
2022-12-09T16:10:06.685Z,0.00
2022-12-09T16:12:35.416Z,0.10
2022-12-09T16:15:02.331Z,0.08
2022-12-09T16:17:30.092Z,0.00
2022-12-09T16:19:56.750Z,0.00
2022-12-09T16:22:27.950Z,0.08
2022-12-09T16:25:15.270Z,0.10
2022-12-09T16:27:48.425Z,0.03
2022-12-09T16:30:17.957Z,0.10
2022-12-09T16:32:54.214Z,0.00
2022-12-09T16:35:26.068Z,0.00
2022-12-09T16:37:58.385Z,0.00
2022-12-09T16:40:24.620Z,0.10
2022-12-09T16:42:55.048Z,0.00
2022-12-09T16:45:32.548Z,0.10
2022-12-09T16:47:59.421Z,0.15
2022-12-09T16:50:36.161Z,0.10
2022-12-09T16:53:03.594Z,0.10
2022-12-09T16:55:30.967Z,0.00
2022-12-09T16:57:58.140Z,0.10
2022-12-09T17:00:24.962Z,0.10
2022-12-09T17:02:59.203Z,0.00
2022-12-09T17:05:25.515Z,0.10
2022-12-09T17:07:51.881Z,0.00
2022-12-09T17:10:18.186Z,0.00
2022-12-09T17:12:45.049Z,0.10
2022-12-09T17:15:18.373Z,0.00
2022-12-09T17:17:48.656Z,0.00
2022-12-09T17:20:16.144Z,0.10
2022-12-09T17:22:42.520Z,0.22
2022-12-09T17:25:10.160Z,0.10
2022-12-09T17:27:36.508Z,0.10
2022-12-09T17:30:02.983Z,0.00
2022-12-09T17:32:29.257Z,0.10
2022-12-09T17:34:55.583Z,0.10
2022-12-09T17:37:21.974Z,0.08
2022-12-09T17:39:57.100Z,0.10
2022-12-09T17:42:27.952Z,0.20
2022-12-09T17:44:54.209Z,0.10
2022-12-09T17:47:20.480Z,0.10
2022-12-09T17:49:46.744Z,0.08
2022-12-09T17:52:14.147Z,0.00
2022-12-09T17:54:40.438Z,0.20
2022-12-09T17:57:06.917Z,0.20
2022-12-09T17:59:33.268Z,0.13
2022-12-09T18:01:59.738Z,0.10
2022-12-09T18:04:26.009Z,0.15
2022-12-09T18:06:52.368Z,0.20
2022-12-09T18:09:19.105Z,0.20
2022-12-09T18:11:45.933Z,0.10
2022-12-09T18:14:12.632Z,0.25
2022-12-09T18:16:38.956Z,0.10
2022-12-09T18:19:06.549Z,0.20
2022-12-09T18:21:33.971Z,0.10
2022-12-09T18:24:00.235Z,0.10
2022-12-09T18:26:30.649Z,0.10
2022-12-09T18:28:58.376Z,0.10
2022-12-09T18:31:25.146Z,0.20
2022-12-09T18:33:51.824Z,0.10
2022-12-09T18:36:20.331Z,0.17
2022-12-09T18:38:46.629Z,0.10
2022-12-09T18:41:13.917Z,0.10
2022-12-09T18:43:41.273Z,0.17
2022-12-09T18:46:09.746Z,0.00
2022-12-09T18:48:36.564Z,0.00
2022-12-09T18:51:03.514Z,0.00
2022-12-09T18:53:29.861Z,0.20
2022-12-09T18:55:56.342Z,0.22
2022-12-09T18:58:42.536Z,0.10
2022-12-09T19:01:18.071Z,0.00
2022-12-09T19:03:44.753Z,0.30
2022-12-09T19:06:18.574Z,0.20
2022-12-09T19:08:44.951Z,0.10
2022-12-09T19:11:11.207Z,0.10
2022-12-09T19:13:40.217Z,0.10
2022-12-09T19:16:06.710Z,0.40
2022-12-09T19:18:32.958Z,0.10
2022-12-09T19:21:09.372Z,0.20
2022-12-09T19:23:36.725Z,0.20
2022-12-09T19:26:03.394Z,0.10
2022-12-09T19:28:29.721Z,0.10
2022-12-09T19:30:56.063Z,0.20
2022-12-09T19:33:22.381Z,0.10
2022-12-09T19:35:48.621Z,0.10
2022-12-09T19:38:14.868Z,0.32
2022-12-09T19:40:41.117Z,0.10
2022-12-09T19:43:07.445Z,0.22
2022-12-09T19:45:33.758Z,0.20
2022-12-09T19:48:00.001Z,0.32
2022-12-09T19:50:26.233Z,0.20
2022-12-09T19:52:52.524Z,0.30
2022-12-09T19:55:18.770Z,0.30
2022-12-09T19:57:45.034Z,0.10
2022-12-09T20:00:11.679Z,0.20
2022-12-09T20:02:37.970Z,0.10
2022-12-09T20:05:05.291Z,0.20
2022-12-09T20:07:31.534Z,0.00
2022-12-09T20:09:57.830Z,0.10
2022-12-09T20:12:24.125Z,0.47
2022-12-09T20:14:50.482Z,0.20
2022-12-09T20:17:17.341Z,0.20
2022-12-09T20:19:43.742Z,0.28
2022-12-09T20:22:10.091Z,0.15
2022-12-09T20:24:36.407Z,0.40
2022-12-09T20:27:02.643Z,0.10
2022-12-09T20:29:33.923Z,0.30
2022-12-09T20:32:02.047Z,0.15
2022-12-09T20:34:28.336Z,0.20
2022-12-09T20:36:54.910Z,0.17
2022-12-09T20:39:21.339Z,0.20
2022-12-09T20:41:47.896Z,0.20
2022-12-09T20:44:14.521Z,0.10
2022-12-09T20:46:42.154Z,0.15
2022-12-09T20:49:09.390Z,0.20
2022-12-09T20:51:37.073Z,0.20
2022-12-09T20:54:05.053Z,0.10
2022-12-09T20:56:32.014Z,0.10
2022-12-09T20:58:58.273Z,0.20
2022-12-09T21:01:25.888Z,0.17
2022-12-09T21:03:53.387Z,0.10
2022-12-09T21:06:20.592Z,0.10
2022-12-09T21:08:46.986Z,0.20
2022-12-09T21:11:17.615Z,0.10
2022-12-09T21:13:45.235Z,0.10
2022-12-09T21:16:13.344Z,0.10
2022-12-09T21:18:39.681Z,0.17
2022-12-09T21:21:06.150Z,0.13
2022-12-09T21:23:34.875Z,0.10
2022-12-09T21:26:05.799Z,0.10
2022-12-09T21:28:32.547Z,0.20
2022-12-09T21:30:58.874Z,0.10
2022-12-09T21:33:25.165Z,0.00
2022-12-09T21:35:51.437Z,0.20
2022-12-09T21:38:17.720Z,0.10
2022-12-09T21:40:43.957Z,0.10
2022-12-09T21:43:10.252Z,0.10
2022-12-09T21:45:36.631Z,0.15
2022-12-09T21:48:02.952Z,0.10
2022-12-09T21:50:32.655Z,0.20
2022-12-09T21:52:58.957Z,0.10
2022-12-09T21:55:25.498Z,0.10
2022-12-09T21:57:51.782Z,0.20
2022-12-09T22:00:18.199Z,0.00
2022-12-09T22:02:44.931Z,0.05
2022-12-09T22:05:11.356Z,0.17
2022-12-09T22:07:37.590Z,0.10
2022-12-09T22:10:04.082Z,0.03
2022-12-09T22:12:30.389Z,0.10
2022-12-09T22:14:56.674Z,0.30
2022-12-09T22:17:22.981Z,0.10
2022-12-09T22:20:06.294Z,0.13
2022-12-09T22:22:36.225Z,0.17
2022-12-09T22:25:03.024Z,0.20
2022-12-09T22:27:29.321Z,0.10
2022-12-09T22:29:55.620Z,0.20
2022-12-09T22:32:21.894Z,0.22
2022-12-09T22:34:48.171Z,0.10
2022-12-09T22:37:41.930Z,0.20
2022-12-09T22:40:00.672Z,0.15
2022-12-09T22:42:28.610Z,0.10
2022-12-09T22:44:54.928Z,0.20
2022-12-09T22:47:21.249Z,0.25
2022-12-09T22:49:47.568Z,0.10
2022-12-09T22:52:13.822Z,0.17
2022-12-09T22:54:40.118Z,0.10
2022-12-09T22:57:06.393Z,0.10
2022-12-09T22:59:32.634Z,0.08
2022-12-09T23:01:58.932Z,0.30
2022-12-09T23:04:25.317Z,0.25
2022-12-09T23:06:51.872Z,0.10
2022-12-09T23:09:19.800Z,0.10
2022-12-09T23:11:46.485Z,0.20
2022-12-09T23:14:13.405Z,0.20
2022-12-09T23:16:39.690Z,0.10
2022-12-09T23:19:06.101Z,0.10
2022-12-09T23:21:33.574Z,0.20
2022-12-09T23:24:01.018Z,0.20
2022-12-09T23:26:28.584Z,0.08
2022-12-09T23:28:57.438Z,0.05
2022-12-09T23:31:25.272Z,0.10
2022-12-09T23:33:52.704Z,0.20
2022-12-09T23:36:20.214Z,0.20
2022-12-09T23:38:48.198Z,0.15
2022-12-09T23:41:15.480Z,0.20
2022-12-09T23:43:41.726Z,0.10
2022-12-09T23:46:14.956Z,0.10
2022-12-09T23:48:41.887Z,0.20
2022-12-09T23:51:12.226Z,0.10
2022-12-09T23:53:39.485Z,0.20
2022-12-09T23:56:06.121Z,0.45
2022-12-09T23:58:32.596Z,0.10
